createdAt,value
2019-02-27T00:00:30.849Z,6.80
2019-02-27T00:01:30.779Z,7.10
2019-02-27T00:02:30.709Z,7.10
2019-02-27T00:03:30.639Z,6.90
2019-02-27T00:04:34.846Z,7.00
2019-02-27T00:05:30.508Z,6.60
2019-02-27T00:06:30.435Z,6.80
2019-02-27T00:07:30.360Z,7.00
2019-02-27T00:08:30.279Z,6.90
2019-02-27T00:09:32.681Z,7.00
2019-02-27T00:10:30.151Z,6.80
2019-02-27T00:11:30.080Z,6.50
2019-02-27T00:12:29.995Z,7.10
2019-02-27T00:13:29.921Z,6.80
2019-02-27T00:14:31.256Z,7.10
2019-02-27T00:15:29.782Z,6.40
2019-02-27T00:16:29.721Z,6.80
2019-02-27T00:17:29.648Z,7.00
2019-02-27T00:18:29.579Z,6.50
2019-02-27T00:19:31.377Z,6.50
2019-02-27T00:20:29.425Z,6.70
2019-02-27T00:21:29.354Z,6.70
2019-02-27T00:22:29.352Z,6.40
2019-02-27T00:23:29.209Z,6.80
2019-02-27T00:24:29.889Z,6.40
2019-02-27T00:25:29.101Z,6.80
2019-02-27T00:26:28.995Z,6.70
2019-02-27T00:27:28.923Z,7.10
2019-02-27T00:28:28.866Z,6.70
2019-02-27T00:29:29.511Z,6.70
2019-02-27T00:30:28.756Z,6.60
2019-02-27T00:31:28.649Z,6.80
2019-02-27T00:32:28.567Z,6.30
2019-02-27T00:33:28.731Z,6.90
2019-02-27T00:34:32.863Z,7.10
2019-02-27T00:35:28.349Z,7.00
2019-02-27T00:36:28.295Z,6.90
2019-02-27T00:37:28.223Z,6.80
2019-02-27T00:38:28.150Z,7.00
2019-02-27T00:39:31.069Z,6.50
2019-02-27T00:40:28.000Z,7.10
2019-02-27T00:41:27.923Z,7.10
2019-02-27T00:42:33.531Z,6.80
2019-02-27T00:43:28.407Z,6.70
2019-02-27T00:44:27.711Z,7.10
2019-02-27T00:45:27.636Z,6.40
2019-02-27T00:46:27.642Z,6.70
2019-02-27T00:47:27.493Z,6.60
2019-02-27T00:48:27.437Z,6.90
2019-02-27T00:49:29.870Z,6.60
2019-02-27T00:50:27.288Z,6.50
2019-02-27T00:51:27.210Z,6.30
2019-02-27T00:52:27.148Z,6.70
2019-02-27T00:53:27.092Z,6.50
2019-02-27T00:54:29.059Z,6.50
2019-02-27T00:55:26.932Z,6.40
2019-02-27T00:56:26.853Z,6.50
2019-02-27T00:57:26.781Z,6.70
2019-02-27T00:58:27.565Z,6.20
2019-02-27T00:59:26.654Z,6.30
2019-02-27T01:00:26.565Z,6.80
2019-02-27T01:01:26.495Z,6.60
2019-02-27T01:02:26.419Z,5.90
2019-02-27T01:03:26.823Z,5.90
2019-02-27T01:04:26.294Z,5.70
2019-02-27T01:05:26.214Z,6.30
2019-02-27T01:06:26.146Z,6.60
2019-02-27T01:07:26.076Z,6.40
2019-02-27T01:08:27.548Z,6.20
2019-02-27T01:09:25.923Z,6.20
2019-02-27T01:10:25.859Z,6.30
2019-02-27T01:11:25.777Z,6.20
2019-02-27T01:12:25.922Z,6.60
2019-02-27T01:13:25.645Z,6.00
2019-02-27T01:14:25.563Z,6.20
2019-02-27T01:15:25.489Z,6.40
2019-02-27T01:16:25.430Z,6.60
2019-02-27T01:17:25.364Z,6.40
2019-02-27T01:18:25.289Z,6.60
2019-02-27T01:19:25.231Z,6.40
2019-02-27T01:20:25.132Z,6.40
2019-02-27T01:21:25.061Z,6.40
2019-02-27T01:22:24.987Z,6.10
2019-02-27T01:23:24.918Z,6.10
2019-02-27T01:24:24.858Z,6.20
2019-02-27T01:25:24.786Z,6.30
2019-02-27T01:26:24.717Z,6.20
2019-02-27T01:27:24.672Z,6.00
2019-02-27T01:28:24.571Z,6.30
2019-02-27T01:29:24.486Z,6.10
2019-02-27T01:30:24.938Z,5.80
2019-02-27T01:31:24.519Z,5.60
2019-02-27T01:32:24.273Z,6.10
2019-02-27T01:33:24.200Z,6.10
2019-02-27T01:34:24.123Z,6.20
2019-02-27T01:35:24.053Z,6.10
2019-02-27T01:36:24.655Z,6.00
2019-02-27T01:37:23.928Z,5.90
2019-02-27T01:38:23.852Z,6.00
2019-02-27T01:39:23.778Z,6.10
2019-02-27T01:40:23.692Z,6.00
2019-02-27T01:41:24.579Z,6.30
2019-02-27T01:42:23.548Z,5.70
2019-02-27T01:43:23.475Z,6.00
2019-02-27T01:44:23.417Z,5.80
2019-02-27T01:45:23.352Z,5.50
2019-02-27T01:46:25.160Z,5.70
2019-02-27T01:47:23.205Z,5.50
2019-02-27T01:48:23.129Z,5.80
2019-02-27T01:49:23.053Z,5.80
2019-02-27T01:50:23.295Z,6.10
2019-02-27T01:51:22.910Z,5.50
2019-02-27T01:52:22.826Z,5.70
2019-02-27T01:53:22.751Z,6.10
2019-02-27T01:54:22.693Z,5.80
2019-02-27T01:55:22.692Z,5.90
2019-02-27T01:56:22.535Z,5.80
2019-02-27T01:57:22.464Z,5.80
2019-02-27T01:58:22.391Z,5.80
2019-02-27T01:59:22.329Z,5.80
2019-02-27T02:00:23.283Z,5.80
2019-02-27T02:01:22.189Z,5.90
2019-02-27T02:02:22.102Z,6.20
2019-02-27T02:03:22.033Z,5.90
2019-02-27T02:04:21.976Z,6.40
2019-02-27T02:05:26.249Z,6.50
2019-02-27T02:06:21.823Z,6.00
2019-02-27T02:07:21.753Z,6.40
2019-02-27T02:08:21.669Z,6.10
2019-02-27T02:09:21.684Z,7.20
2019-02-27T02:10:21.529Z,8.30
2019-02-27T02:11:21.453Z,8.20
2019-02-27T02:12:21.398Z,9.00
2019-02-27T02:13:21.321Z,8.20
2019-02-27T02:14:21.661Z,7.90
2019-02-27T02:15:21.178Z,8.70
2019-02-27T02:16:21.097Z,8.30
2019-02-27T02:17:21.023Z,8.70
2019-02-27T02:18:20.973Z,8.30
2019-02-27T02:19:21.388Z,8.40
2019-02-27T02:20:20.804Z,8.00
2019-02-27T02:21:20.731Z,8.00
2019-02-27T02:22:20.661Z,8.20
2019-02-27T02:23:20.583Z,8.70
2019-02-27T02:24:21.179Z,8.10
2019-02-27T02:25:20.473Z,8.20
2019-02-27T02:26:20.371Z,8.10
2019-02-27T02:27:20.298Z,8.00
2019-02-27T02:28:20.237Z,8.00
2019-02-27T02:29:20.376Z,8.60
2019-02-27T02:30:20.099Z,8.40
2019-02-27T02:31:20.021Z,8.50
2019-02-27T02:32:19.941Z,8.30
2019-02-27T02:33:19.895Z,8.50
2019-02-27T02:34:19.822Z,8.70
2019-02-27T02:35:19.737Z,8.90
2019-02-27T02:36:25.017Z,8.60
2019-02-27T02:37:19.579Z,8.70
2019-02-27T02:38:19.531Z,8.80
2019-02-27T02:39:19.471Z,8.00
2019-02-27T02:40:19.377Z,7.70
2019-02-27T02:41:19.298Z,7.70
2019-02-27T02:42:24.303Z,7.90
2019-02-27T02:43:19.166Z,7.20
2019-02-27T02:44:20.994Z,7.40
2019-02-27T02:45:18.999Z,7.30
2019-02-27T02:46:18.926Z,6.80
2019-02-27T02:47:21.098Z,6.60
2019-02-27T02:48:18.823Z,6.90
2019-02-27T02:49:18.737Z,5.70
2019-02-27T02:50:18.637Z,6.10
2019-02-27T02:51:18.570Z,6.20
2019-02-27T02:52:18.505Z,5.90
2019-02-27T02:53:24.726Z,5.70
2019-02-27T02:54:18.363Z,5.50
2019-02-27T02:55:18.321Z,5.40
2019-02-27T02:56:23.701Z,5.00
2019-02-27T02:57:18.136Z,4.90
2019-02-27T02:58:18.072Z,5.10
2019-02-27T02:59:24.422Z,4.80
2019-02-27T03:00:17.917Z,5.20
2019-02-27T03:01:17.846Z,4.80
2019-02-27T03:02:23.577Z,5.20
2019-02-27T03:03:17.704Z,4.90
2019-02-27T03:04:17.653Z,4.70
2019-02-27T03:05:23.264Z,5.20
2019-02-27T03:06:17.485Z,4.30
2019-02-27T03:07:17.416Z,4.70
2019-02-27T03:08:20.154Z,4.40
2019-02-27T03:09:17.327Z,4.80
2019-02-27T03:10:17.219Z,4.40
2019-02-27T03:11:19.029Z,4.60
2019-02-27T03:12:17.052Z,4.00
2019-02-27T03:13:16.979Z,4.30
2019-02-27T03:14:17.651Z,4.30
2019-02-27T03:15:16.845Z,4.30
2019-02-27T03:16:16.779Z,4.00
2019-02-27T03:17:18.418Z,3.90
2019-02-27T03:18:16.630Z,4.00
2019-02-27T03:19:16.561Z,4.10
2019-02-27T03:20:17.660Z,3.90
2019-02-27T03:21:16.404Z,4.10
2019-02-27T03:22:16.339Z,4.30
2019-02-27T03:23:16.474Z,4.30
2019-02-27T03:24:16.202Z,4.20
2019-02-27T03:25:16.115Z,4.40
2019-02-27T03:26:16.905Z,4.20
2019-02-27T03:27:15.979Z,3.90
2019-02-27T03:28:15.907Z,4.00
2019-02-27T03:29:17.208Z,4.40
2019-02-27T03:30:15.762Z,4.10
2019-02-27T03:31:18.040Z,4.40
2019-02-27T03:32:15.607Z,4.10
2019-02-27T03:33:23.279Z,4.20
2019-02-27T03:34:15.467Z,4.30
2019-02-27T03:35:15.385Z,4.00
2019-02-27T03:36:15.335Z,4.10
2019-02-27T03:37:15.253Z,4.10
2019-02-27T03:38:15.168Z,4.10
2019-02-27T03:39:15.096Z,3.80
2019-02-27T03:40:15.040Z,4.10
2019-02-27T03:41:15.007Z,3.90
2019-02-27T03:42:14.893Z,4.10
2019-02-27T03:43:14.816Z,4.40
2019-02-27T03:44:20.323Z,4.20
2019-02-27T03:45:14.666Z,3.90
2019-02-27T03:46:14.588Z,4.10
2019-02-27T03:47:16.847Z,3.60
2019-02-27T03:48:14.461Z,3.80
2019-02-27T03:49:14.379Z,3.80
2019-02-27T03:50:15.636Z,4.10
2019-02-27T03:51:14.236Z,3.60
2019-02-27T03:52:14.159Z,4.30
2019-02-27T03:53:14.079Z,4.00
2019-02-27T03:54:14.020Z,4.20
2019-02-27T03:55:13.949Z,3.90
2019-02-27T03:56:13.866Z,3.80
2019-02-27T03:57:19.043Z,4.10
2019-02-27T03:58:13.725Z,4.40
2019-02-27T03:59:13.641Z,3.70
2019-02-27T04:00:18.115Z,4.30
2019-02-27T04:01:13.507Z,4.20
2019-02-27T04:02:13.434Z,3.80
2019-02-27T04:03:17.061Z,3.90
2019-02-27T04:04:13.290Z,4.10
2019-02-27T04:05:13.217Z,4.00
2019-02-27T04:06:13.142Z,3.80
2019-02-27T04:07:13.076Z,4.30
2019-02-27T04:08:12.988Z,4.10
2019-02-27T04:09:18.574Z,4.10
2019-02-27T04:10:12.855Z,4.00
2019-02-27T04:11:12.788Z,4.00
2019-02-27T04:12:16.113Z,4.30
2019-02-27T04:13:12.621Z,4.40
2019-02-27T04:14:12.550Z,3.80
2019-02-27T04:15:17.719Z,4.40
2019-02-27T04:16:12.423Z,3.80
2019-02-27T04:17:12.342Z,4.30
2019-02-27T04:18:12.277Z,4.20
2019-02-27T04:19:12.197Z,4.30
2019-02-27T04:20:15.468Z,4.10
2019-02-27T04:21:12.038Z,4.10
2019-02-27T04:22:11.960Z,4.50
2019-02-27T04:23:12.850Z,4.60
2019-02-27T04:24:11.833Z,4.40
2019-02-27T04:25:11.760Z,4.40
2019-02-27T04:26:11.675Z,4.60
2019-02-27T04:27:11.597Z,4.60
2019-02-27T04:28:11.538Z,4.50
2019-02-27T04:29:11.467Z,4.70
2019-02-27T04:30:14.795Z,4.40
2019-02-27T04:31:11.319Z,4.50
2019-02-27T04:32:12.469Z,4.60
2019-02-27T04:33:11.158Z,5.00
2019-02-27T04:34:11.087Z,4.80
2019-02-27T04:35:11.011Z,5.00
2019-02-27T04:36:12.738Z,5.00
2019-02-27T04:37:10.876Z,4.40
2019-02-27T04:38:10.801Z,5.10
2019-02-27T04:39:10.731Z,5.20
2019-02-27T04:40:11.233Z,5.10
2019-02-27T04:41:10.574Z,5.20
2019-02-27T04:42:10.509Z,5.10
2019-02-27T04:43:10.438Z,5.20
2019-02-27T04:44:10.348Z,5.50
2019-02-27T04:45:12.287Z,5.10
2019-02-27T04:46:10.205Z,5.50
2019-02-27T04:47:10.131Z,5.30
2019-02-27T04:48:10.077Z,5.40
2019-02-27T04:49:10.000Z,5.30
2019-02-27T04:50:11.336Z,5.40
2019-02-27T04:51:09.852Z,5.40
2019-02-27T04:52:09.764Z,5.90
2019-02-27T04:53:09.689Z,6.90
2019-02-27T04:54:09.614Z,6.50
2019-02-27T04:55:09.543Z,7.10
2019-02-27T04:56:09.487Z,7.40
2019-02-27T04:57:09.412Z,8.50
2019-02-27T04:58:09.688Z,8.60
2019-02-27T04:59:09.246Z,9.20
2019-02-27T05:00:09.187Z,9.90
2019-02-27T05:01:09.118Z,10.20
2019-02-27T05:02:09.037Z,10.00
2019-02-27T05:03:08.965Z,10.60
2019-02-27T05:04:08.898Z,9.90
2019-02-27T05:05:09.257Z,11.20
2019-02-27T05:06:08.748Z,11.30
2019-02-27T05:07:08.676Z,10.80
2019-02-27T05:08:08.592Z,11.40
2019-02-27T05:09:08.517Z,11.70
2019-02-27T05:10:08.443Z,11.80
2019-02-27T05:11:08.370Z,11.50
2019-02-27T05:12:08.324Z,11.00
2019-02-27T05:13:08.231Z,10.90
2019-02-27T05:14:08.146Z,10.30
2019-02-27T05:15:08.081Z,10.10
2019-02-27T05:16:08.016Z,9.70
2019-02-27T05:17:07.950Z,9.00
2019-02-27T05:18:07.872Z,9.50
2019-02-27T05:19:07.821Z,9.70
2019-02-27T05:20:11.583Z,9.10
2019-02-27T05:21:07.640Z,8.70
2019-02-27T05:22:07.564Z,8.40
2019-02-27T05:23:07.491Z,8.40
2019-02-27T05:24:07.720Z,8.10
2019-02-27T05:25:07.353Z,9.60
2019-02-27T05:26:07.288Z,9.40
2019-02-27T05:27:07.208Z,10.00
2019-02-27T05:28:07.119Z,9.70
2019-02-27T05:29:07.050Z,10.00
2019-02-27T05:30:06.990Z,10.20
2019-02-27T05:31:06.914Z,10.10
2019-02-27T05:32:06.828Z,9.60
2019-02-27T05:33:06.750Z,10.00
2019-02-27T05:34:06.685Z,9.80
2019-02-27T05:35:06.608Z,9.30
2019-02-27T05:36:06.548Z,9.00
2019-02-27T05:37:06.467Z,9.70
2019-02-27T05:38:06.402Z,10.00
2019-02-27T05:39:06.327Z,9.60
2019-02-27T05:40:06.241Z,9.30
2019-02-27T05:41:06.167Z,8.80
2019-02-27T05:42:06.913Z,8.80
2019-02-27T05:43:06.016Z,8.30
2019-02-27T05:44:05.963Z,8.60
2019-02-27T05:45:05.882Z,9.50
2019-02-27T05:46:05.796Z,9.20
2019-02-27T05:47:05.722Z,9.00
2019-02-27T05:48:05.658Z,8.80
2019-02-27T05:49:05.588Z,9.30
2019-02-27T05:50:05.530Z,9.00
2019-02-27T05:51:07.504Z,9.00
2019-02-27T05:52:05.357Z,8.30
2019-02-27T05:53:05.284Z,8.10
2019-02-27T05:54:05.223Z,8.60
2019-02-27T05:55:06.444Z,8.30
2019-02-27T05:56:05.069Z,8.10
2019-02-27T05:57:04.998Z,8.30
2019-02-27T05:58:04.921Z,8.90
2019-02-27T05:59:04.855Z,9.20
2019-02-27T06:00:04.767Z,9.80
2019-02-27T06:01:05.020Z,9.30
2019-02-27T06:02:04.633Z,9.00
2019-02-27T06:03:04.563Z,8.90
2019-02-27T06:04:04.475Z,8.40
2019-02-27T06:05:04.397Z,9.10
2019-02-27T06:06:04.324Z,9.60
2019-02-27T06:07:04.248Z,10.50
2019-02-27T06:08:04.185Z,10.80
2019-02-27T06:09:04.135Z,10.80
2019-02-27T06:10:04.135Z,10.50
2019-02-27T06:11:03.953Z,10.70
2019-02-27T06:12:06.790Z,10.70
2019-02-27T06:13:03.821Z,11.20
2019-02-27T06:14:03.747Z,10.60
2019-02-27T06:15:03.674Z,10.40
2019-02-27T06:16:06.678Z,11.20
2019-02-27T06:17:03.515Z,10.60
2019-02-27T06:18:03.450Z,11.10
2019-02-27T06:19:03.378Z,11.40
2019-02-27T06:20:07.702Z,11.30
2019-02-27T06:21:03.220Z,10.20
2019-02-27T06:22:03.146Z,10.70
2019-02-27T06:23:04.492Z,10.30
2019-02-27T06:24:03.013Z,10.60
2019-02-27T06:25:02.945Z,10.70
2019-02-27T06:26:02.865Z,9.80
2019-02-27T06:27:06.049Z,10.80
2019-02-27T06:28:02.707Z,11.20
2019-02-27T06:29:02.638Z,11.80
2019-02-27T06:30:02.558Z,11.70
2019-02-27T06:31:03.158Z,11.40
2019-02-27T06:32:02.423Z,11.00
2019-02-27T06:33:02.354Z,11.10
2019-02-27T06:34:02.261Z,10.80
2019-02-27T06:35:02.271Z,10.80
2019-02-27T06:36:02.129Z,12.90
2019-02-27T06:37:02.053Z,14.80
2019-02-27T06:38:01.977Z,14.60
2019-02-27T06:39:01.909Z,16.70
2019-02-27T06:40:01.823Z,16.40
2019-02-27T06:41:01.787Z,17.30
2019-02-27T06:42:01.688Z,17.00
2019-02-27T06:43:01.613Z,17.50
2019-02-27T06:44:02.224Z,17.70
2019-02-27T06:45:01.449Z,17.10
2019-02-27T06:46:01.383Z,16.30
2019-02-27T06:47:01.312Z,16.00
2019-02-27T06:48:01.261Z,16.40
2019-02-27T06:49:01.173Z,18.20
2019-02-27T06:50:01.093Z,18.00
2019-02-27T06:51:01.645Z,18.50
2019-02-27T06:52:00.945Z,17.70
2019-02-27T06:53:00.874Z,16.40
2019-02-27T06:54:00.806Z,16.20
2019-02-27T06:55:00.732Z,16.80
2019-02-27T06:56:03.449Z,16.20
2019-02-27T06:57:00.568Z,16.70
2019-02-27T06:58:00.509Z,16.10
2019-02-27T06:59:00.426Z,15.80
2019-02-27T07:00:03.007Z,18.10
2019-02-27T07:01:00.286Z,18.40
2019-02-27T07:02:00.216Z,18.70
2019-02-27T07:03:00.135Z,17.50
2019-02-27T07:04:02.287Z,17.20
2019-02-27T07:04:59.979Z,16.00
2019-02-27T07:05:59.912Z,15.50
2019-02-27T07:07:00.592Z,15.60
2019-02-27T07:08:02.165Z,15.20
2019-02-27T07:08:59.687Z,14.00
2019-02-27T07:09:59.615Z,13.50
2019-02-27T07:11:10.448Z,13.30
2019-02-27T07:11:59.478Z,14.40
2019-02-27T07:12:59.401Z,14.00
2019-02-27T07:13:59.317Z,13.70
2019-02-27T07:14:59.246Z,13.50
2019-02-27T07:15:59.183Z,12.60
2019-02-27T07:16:59.112Z,12.90
2019-02-27T07:17:59.036Z,13.20
2019-02-27T07:18:58.964Z,13.40
2019-02-27T07:19:58.878Z,12.70
2019-02-27T07:20:59.270Z,13.60
2019-02-27T07:21:58.744Z,13.20
2019-02-27T07:22:58.698Z,12.60
2019-02-27T07:23:58.704Z,13.20
2019-02-27T07:24:58.511Z,12.60
2019-02-27T07:25:58.436Z,12.80
2019-02-27T07:26:58.370Z,12.30
2019-02-27T07:27:58.310Z,12.50
2019-02-27T07:28:58.231Z,13.20
2019-02-27T07:29:58.164Z,13.50
2019-02-27T07:30:58.088Z,13.20
2019-02-27T07:31:58.005Z,13.80
2019-02-27T07:32:57.931Z,13.60
2019-02-27T07:33:57.857Z,14.30
2019-02-27T07:34:57.792Z,13.90
2019-02-27T07:35:57.721Z,14.00
2019-02-27T07:36:57.649Z,14.50
2019-02-27T07:37:57.567Z,13.40
2019-02-27T07:38:58.267Z,14.70
2019-02-27T07:39:57.438Z,14.90
2019-02-27T07:40:57.358Z,15.30
2019-02-27T07:41:57.287Z,15.00
2019-02-27T07:42:57.215Z,15.90
2019-02-27T07:43:57.134Z,15.70
2019-02-27T07:44:57.063Z,15.90
2019-02-27T07:45:56.992Z,16.60
2019-02-27T07:46:57.578Z,16.30
2019-02-27T07:47:57.187Z,16.20
2019-02-27T07:48:57.300Z,17.90
2019-02-27T07:49:56.712Z,18.00
2019-02-27T07:50:56.641Z,17.00
2019-02-27T07:51:57.790Z,17.50
2019-02-27T07:52:56.482Z,17.80
2019-02-27T07:53:56.423Z,17.70
2019-02-27T07:54:56.356Z,17.90
2019-02-27T07:55:56.270Z,18.00
2019-02-27T07:56:56.201Z,19.40
2019-02-27T07:57:58.687Z,19.20
2019-02-27T07:58:56.052Z,19.60
2019-02-27T07:59:55.993Z,19.20
2019-02-27T08:00:55.920Z,20.60
2019-02-27T08:01:55.857Z,20.20
2019-02-27T08:02:55.787Z,20.70
2019-02-27T08:03:55.692Z,20.60
2019-02-27T08:04:55.620Z,19.50
2019-02-27T08:05:55.549Z,18.80
2019-02-27T08:06:55.528Z,19.10
2019-02-27T08:07:55.415Z,18.80
2019-02-27T08:08:57.193Z,18.30
2019-02-27T08:09:55.259Z,18.10
2019-02-27T08:10:55.192Z,18.50
2019-02-27T08:11:55.133Z,17.80
2019-02-27T08:12:56.505Z,17.50
2019-02-27T08:13:54.990Z,17.60
2019-02-27T08:14:54.914Z,18.20
2019-02-27T08:15:54.887Z,18.40
2019-02-27T08:16:57.149Z,18.00
2019-02-27T08:17:57.627Z,17.10
2019-02-27T08:18:54.632Z,17.80
2019-02-27T08:19:54.540Z,17.60
2019-02-27T08:20:55.176Z,18.70
2019-02-27T08:21:54.398Z,17.50
2019-02-27T08:22:54.324Z,18.70
2019-02-27T08:23:55.163Z,17.90
2019-02-27T08:24:54.200Z,19.20
2019-02-27T08:25:54.113Z,18.30
2019-02-27T08:26:54.038Z,19.20
2019-02-27T08:27:54.315Z,19.00
2019-02-27T08:28:53.941Z,18.50
2019-02-27T08:29:53.839Z,18.50
2019-02-27T08:30:53.791Z,19.00
2019-02-27T08:31:53.687Z,18.80
2019-02-27T08:32:53.612Z,19.20
2019-02-27T08:33:53.554Z,18.50
2019-02-27T08:34:53.475Z,17.70
2019-02-27T08:35:53.412Z,18.10
2019-02-27T08:36:53.340Z,17.50
2019-02-27T08:38:02.263Z,16.80
2019-02-27T08:38:53.201Z,17.90
2019-02-27T08:39:53.118Z,17.20
2019-02-27T08:40:57.225Z,17.20
2019-02-27T08:41:52.993Z,17.50
2019-02-27T08:42:52.917Z,17.40
2019-02-27T08:43:52.834Z,17.40
2019-02-27T08:44:52.763Z,18.30
2019-02-27T08:45:52.693Z,18.30
2019-02-27T08:46:52.622Z,17.90
2019-02-27T08:47:52.560Z,17.30
2019-02-27T08:48:52.498Z,18.20
2019-02-27T08:49:57.600Z,17.80
2019-02-27T08:50:52.338Z,17.70
2019-02-27T08:51:52.283Z,17.50
2019-02-27T08:52:52.208Z,17.60
2019-02-27T08:53:52.141Z,18.20
2019-02-27T08:54:52.070Z,17.60
2019-02-27T08:55:51.992Z,19.10
2019-02-27T08:56:51.912Z,18.10
2019-02-27T08:57:55.882Z,19.40
2019-02-27T08:58:51.784Z,18.30
2019-02-27T08:59:51.706Z,18.20
2019-02-27T09:00:51.893Z,18.50
2019-02-27T09:01:55.426Z,18.00
2019-02-27T09:02:51.492Z,17.60
2019-02-27T09:03:51.442Z,17.20
2019-02-27T09:04:51.371Z,17.70
2019-02-27T09:05:53.714Z,17.70
2019-02-27T09:06:51.232Z,17.80
2019-02-27T09:07:51.167Z,17.00
2019-02-27T09:08:51.072Z,17.90
2019-02-27T09:09:51.645Z,17.00
2019-02-27T09:10:50.939Z,17.20
2019-02-27T09:11:50.883Z,17.50
2019-02-27T09:12:51.786Z,17.70
2019-02-27T09:13:50.729Z,17.30
2019-02-27T09:14:50.658Z,17.20
2019-02-27T09:15:50.605Z,17.80
2019-02-27T09:16:50.541Z,16.90
2019-02-27T09:17:50.462Z,16.70
2019-02-27T09:18:50.395Z,17.00
2019-02-27T09:19:50.350Z,16.70
2019-02-27T09:20:53.092Z,17.20
2019-02-27T09:21:50.187Z,16.80
2019-02-27T09:22:50.128Z,17.30
2019-02-27T09:23:50.039Z,16.60
2019-02-27T09:24:49.976Z,16.90
2019-02-27T09:25:57.021Z,16.50
2019-02-27T09:26:49.830Z,16.10
2019-02-27T09:27:49.775Z,16.40
2019-02-27T09:28:49.700Z,16.40
2019-02-27T09:29:52.364Z,16.10
2019-02-27T09:30:49.554Z,16.90
2019-02-27T09:31:51.056Z,17.60
2019-02-27T09:32:49.430Z,16.70
2019-02-27T09:33:52.947Z,16.90
2019-02-27T09:34:49.291Z,17.10
2019-02-27T09:35:49.208Z,17.90
2019-02-27T09:36:49.268Z,17.40
2019-02-27T09:37:51.358Z,17.30
2019-02-27T09:38:49.002Z,18.50
2019-02-27T09:39:48.945Z,18.40
2019-02-27T09:40:48.880Z,17.90
2019-02-27T09:41:48.809Z,18.70
2019-02-27T09:42:50.218Z,17.80
2019-02-27T09:43:48.662Z,18.20
2019-02-27T09:44:48.587Z,18.00
2019-02-27T09:45:48.540Z,18.70
2019-02-27T09:46:49.943Z,17.70
2019-02-27T09:47:48.384Z,18.40
2019-02-27T09:48:48.320Z,18.30
2019-02-27T09:49:48.255Z,17.30
2019-02-27T09:50:49.113Z,19.40
2019-02-27T09:51:48.137Z,18.10
2019-02-27T09:52:48.057Z,19.30
2019-02-27T09:53:47.987Z,19.60
2019-02-27T09:54:47.919Z,18.80
2019-02-27T09:55:47.836Z,19.10
2019-02-27T09:56:47.770Z,19.50
2019-02-27T09:57:47.702Z,18.40
2019-02-27T09:58:47.635Z,19.20
2019-02-27T09:59:47.576Z,18.20
2019-02-27T10:00:47.509Z,19.10
2019-02-27T10:01:47.429Z,19.20
2019-02-27T10:02:47.360Z,19.50
2019-02-27T10:03:47.307Z,18.60
2019-02-27T10:04:47.246Z,18.80
2019-02-27T10:05:47.800Z,19.20
2019-02-27T10:06:47.100Z,19.50
2019-02-27T10:07:50.956Z,20.20
2019-02-27T10:08:46.946Z,18.80
2019-02-27T10:09:46.905Z,18.80
2019-02-27T10:10:46.812Z,17.40
2019-02-27T10:11:46.757Z,18.00
2019-02-27T10:12:46.695Z,18.60
2019-02-27T10:13:46.619Z,17.80
2019-02-27T10:14:47.946Z,18.60
2019-02-27T10:15:46.476Z,19.10
2019-02-27T10:16:46.429Z,18.60
2019-02-27T10:17:46.351Z,19.10
2019-02-27T10:18:46.285Z,18.80
2019-02-27T10:19:46.200Z,18.70
2019-02-27T10:20:46.137Z,19.10
2019-02-27T10:21:47.468Z,18.80
2019-02-27T10:22:46.001Z,19.10
2019-02-27T10:23:45.944Z,18.30
2019-02-27T10:24:45.876Z,19.20
2019-02-27T10:25:45.798Z,20.90
2019-02-27T10:26:45.726Z,19.60
2019-02-27T10:27:47.265Z,20.70
2019-02-27T10:28:45.603Z,20.30
2019-02-27T10:29:47.610Z,21.30
2019-02-27T10:30:46.942Z,20.80
2019-02-27T10:31:45.388Z,22.00
2019-02-27T10:32:45.321Z,21.70
2019-02-27T10:33:45.268Z,23.00
2019-02-27T10:34:45.199Z,23.90
2019-02-27T10:35:45.122Z,24.40
2019-02-27T10:36:45.044Z,25.40
2019-02-27T10:37:50.511Z,25.30
2019-02-27T10:38:45.563Z,26.10
2019-02-27T10:39:44.854Z,28.40
2019-02-27T10:40:45.977Z,28.10
2019-02-27T10:41:44.971Z,29.10
2019-02-27T10:42:44.653Z,32.60
2019-02-27T10:43:44.577Z,33.50
2019-02-27T10:44:44.506Z,37.20
2019-02-27T10:45:48.260Z,37.50
2019-02-27T10:46:44.370Z,36.40
2019-02-27T10:47:44.310Z,37.00
2019-02-27T10:48:46.956Z,36.90
2019-02-27T10:49:44.165Z,38.00
2019-02-27T10:50:44.096Z,37.50
2019-02-27T10:51:44.429Z,38.50
2019-02-27T10:52:43.975Z,36.20
2019-02-27T10:53:43.908Z,39.30
2019-02-27T10:54:43.832Z,38.10
2019-02-27T10:55:48.600Z,38.10
2019-02-27T10:56:43.689Z,34.40
2019-02-27T10:57:43.632Z,29.10
2019-02-27T10:58:45.059Z,28.30
2019-02-27T10:59:43.485Z,27.70
2019-02-27T11:00:43.416Z,26.80
2019-02-27T11:01:43.368Z,26.80
2019-02-27T11:02:45.101Z,26.60
2019-02-27T11:03:43.224Z,25.30
2019-02-27T11:04:43.157Z,25.60
2019-02-27T11:05:43.077Z,24.50
2019-02-27T11:06:43.012Z,24.30
2019-02-27T11:07:42.952Z,23.60
2019-02-27T11:08:42.886Z,24.00
2019-02-27T11:09:42.815Z,23.10
2019-02-27T11:10:42.748Z,23.00
2019-02-27T11:11:45.359Z,22.50
2019-02-27T11:12:42.601Z,22.80
2019-02-27T11:13:42.537Z,23.20
2019-02-27T11:14:42.478Z,21.80
2019-02-27T11:15:44.630Z,21.70
2019-02-27T11:16:42.357Z,21.60
2019-02-27T11:17:42.276Z,21.60
2019-02-27T11:18:42.812Z,22.10
2019-02-27T11:19:42.129Z,23.60
2019-02-27T11:20:42.073Z,21.90
2019-02-27T11:21:42.002Z,21.50
2019-02-27T11:22:41.933Z,21.40
2019-02-27T11:23:41.856Z,20.10
2019-02-27T11:24:41.788Z,20.60
2019-02-27T11:25:41.731Z,20.70
2019-02-27T11:26:41.664Z,19.60
2019-02-27T11:27:41.600Z,20.80
2019-02-27T11:28:45.236Z,20.60
2019-02-27T11:29:41.453Z,20.00
2019-02-27T11:30:41.390Z,19.90
2019-02-27T11:31:42.353Z,19.40
2019-02-27T11:32:41.263Z,20.30
2019-02-27T11:33:41.191Z,20.10
2019-02-27T11:34:41.115Z,20.70
2019-02-27T11:35:41.052Z,20.80
2019-02-27T11:36:40.993Z,21.40
2019-02-27T11:37:40.923Z,22.40
2019-02-27T11:38:40.846Z,21.90
2019-02-27T11:39:40.773Z,22.20
2019-02-27T11:40:42.629Z,22.30
2019-02-27T11:41:40.638Z,22.30
2019-02-27T11:42:40.583Z,21.50
2019-02-27T11:43:40.861Z,21.80
2019-02-27T11:44:40.478Z,21.50
2019-02-27T11:45:40.384Z,22.20
2019-02-27T11:46:40.296Z,21.30
2019-02-27T11:47:45.126Z,21.70
2019-02-27T11:48:40.164Z,21.60
2019-02-27T11:49:40.095Z,22.60
2019-02-27T11:50:40.039Z,22.90
2019-02-27T11:51:39.976Z,22.30
2019-02-27T11:52:46.227Z,23.30
2019-02-27T11:53:39.830Z,23.60
2019-02-27T11:54:42.923Z,23.50
2019-02-27T11:55:39.703Z,23.30
2019-02-27T11:56:39.631Z,23.30
2019-02-27T11:57:39.567Z,23.30
2019-02-27T11:58:39.486Z,23.10
2019-02-27T11:59:39.416Z,22.80
2019-02-27T12:00:39.358Z,23.00
2019-02-27T12:01:39.285Z,23.20
2019-02-27T12:02:39.237Z,22.80
2019-02-27T12:03:39.161Z,22.50
2019-02-27T12:04:39.094Z,23.30
2019-02-27T12:05:39.026Z,22.80
2019-02-27T12:06:41.305Z,23.70
2019-02-27T12:07:38.877Z,22.10
2019-02-27T12:08:38.819Z,23.70
2019-02-27T12:09:38.755Z,23.20
2019-02-27T12:10:38.679Z,22.40
2019-02-27T12:11:38.612Z,22.70
2019-02-27T12:12:38.547Z,22.20
2019-02-27T12:13:38.476Z,21.80
2019-02-27T12:14:38.421Z,23.00
2019-02-27T12:15:38.350Z,22.80
2019-02-27T12:16:38.287Z,22.90
2019-02-27T12:17:38.217Z,22.50
2019-02-27T12:18:38.139Z,23.40
2019-02-27T12:19:42.050Z,23.50
2019-02-27T12:20:38.005Z,22.60
2019-02-27T12:21:37.935Z,23.30
2019-02-27T12:22:37.883Z,23.80
2019-02-27T12:23:37.808Z,24.80
2019-02-27T12:24:37.735Z,24.50
2019-02-27T12:25:37.675Z,24.10
2019-02-27T12:26:38.234Z,25.50
2019-02-27T12:28:37.474Z,25.00
2019-02-27T12:29:37.409Z,27.40
2019-02-27T12:30:38.009Z,28.30
2019-02-27T12:31:37.267Z,29.50
2019-02-27T12:32:37.202Z,28.30
2019-02-27T12:33:37.136Z,29.60
2019-02-27T12:34:37.731Z,31.00
2019-02-27T12:35:36.993Z,30.80
2019-02-27T12:36:36.925Z,32.10
2019-02-27T12:37:36.857Z,32.50
2019-02-27T12:38:39.323Z,32.90
2019-02-27T12:39:36.736Z,33.30
2019-02-27T12:40:36.655Z,33.40
2019-02-27T12:41:36.604Z,32.50
2019-02-27T12:42:37.493Z,33.20
2019-02-27T12:43:36.466Z,33.00
2019-02-27T12:44:36.395Z,33.70
2019-02-27T12:45:36.325Z,33.40
2019-02-27T12:46:37.046Z,34.20
2019-02-27T12:47:37.632Z,35.80
2019-02-27T12:48:36.115Z,35.30
2019-02-27T12:49:36.047Z,34.50
2019-02-27T12:50:35.987Z,35.20
2019-02-27T12:51:38.314Z,35.20
2019-02-27T12:52:35.858Z,35.40
2019-02-27T12:53:35.794Z,34.00
2019-02-27T12:54:35.713Z,33.80
2019-02-27T12:55:36.418Z,34.30
2019-02-27T12:56:35.615Z,34.30
2019-02-27T12:57:35.524Z,33.70
2019-02-27T12:58:35.445Z,33.40
2019-02-27T12:59:35.377Z,33.60
2019-02-27T13:00:35.310Z,33.40
2019-02-27T13:01:35.243Z,32.30
2019-02-27T13:02:35.877Z,32.00
2019-02-27T13:03:35.130Z,34.90